Airfield :
LOGIN :

Register | Disclaimer

   EN    FR    IT 

 










Legend :    VFR   Marginal VFR   IFR   Intensive IFR   Very Intensive IFR
Visi :
Ceiling :
>= 8 km
>= 3000ft
5 to 8 km
1000 to 3000 ft
1500m to 5 km
500 to 1000 ft
800 to 1500m
200 to 500 ft
< 800m
< 200 ft
Symbols :   Thunderstorms  Fog  Heavy snow  Heavy precipitations  Wind > 20 kt
SIGMETs :     Misc.  Thunderstorms  Icing  Turbulence  Mountain Waves  Volcanic Ashes






- Airport Elevation : 121 ft
- IATA code : HUY


EGNJ - Humberside

CURRENT METAR :
  • 200250Z AUTO 21022KT 9999 OVC018/// 09/07 Q1004

EXPIRED METARs :
  • 200220Z AUTO 20019KT 9999 OVC018/// 09/07 Q1005
  • 200150Z AUTO 20020KT 9999 OVC020/// 09/07 Q1005
  • 200120Z AUTO 20021KT 9999 OVC022/// 09/07 Q1005
  • 200050Z AUTO 21019KT 9999 OVC021/// 09/07 Q1006

TAF TAF EGNJ
Valid from the 20 at 03:00 until the 20 at 12:00 UTC


200147Z 2003/2012 21018KT 9999 FEW008 SCT030
TEMPO 2003/2012 21022G33KT 7000 -RADZ BKN008
PROB30
TEMPO 2009/2012 25025G37KT 3000 +RA
ATIS : +44 1652 682 020



MET'MAP, your aeronautical weather chart ! - Copyright ORBIFLY December 2007 - Disclaimer

ORBIFLY MET'MAP TEAM :

Programming & Development : Alexandra Zaïnal
Concept & original design : Baudouin d'Aumeries
Assistance for programming : Marc-Olivier Méhu
Technical & hardware support : Manuel Goepfert

Contact : metmap@orbifly.com




SOURCES & CREDITS :

   NOAA